createdAt,value
2019-02-24T00:01:44.650Z,102128.17
2019-02-24T00:04:47.589Z,102125.38
2019-02-24T00:07:50.555Z,102125.33
2019-02-24T00:10:54.054Z,102129.03
2019-02-24T00:13:57.272Z,102128.17
2019-02-24T00:17:00.225Z,102117.84
2019-02-24T00:20:03.238Z,102124.72
2019-02-24T00:23:06.626Z,102119.01
2019-02-24T00:26:10.163Z,102126.17
2019-02-24T00:29:13.443Z,102126.45
2019-02-24T00:32:16.747Z,102131.43
2019-02-24T00:35:20.015Z,102134.81
2019-02-24T00:38:23.285Z,102135.13
2019-02-24T00:41:26.569Z,102142.47
2019-02-24T00:44:29.776Z,102145.77
2019-02-24T00:47:33.281Z,102153.64
2019-02-24T00:50:36.229Z,102154.05
2019-02-24T00:53:39.327Z,102151.27
2019-02-24T00:56:42.650Z,102142.63
2019-02-24T00:59:45.599Z,102152.80
2019-02-24T01:02:48.940Z,102145.20
2019-02-24T01:05:52.712Z,102140.78
2019-02-24T01:08:55.686Z,102143.72
2019-02-24T01:11:58.891Z,102142.80
2019-02-24T01:15:02.120Z,102142.91
2019-02-24T01:18:05.769Z,102138.14
2019-02-24T01:21:09.764Z,102144.40
2019-02-24T01:24:13.041Z,102140.06
2019-02-24T01:27:15.982Z,102144.20
2019-02-24T01:30:19.217Z,102147.86
2019-02-24T01:33:22.436Z,102135.16
2019-02-24T01:36:25.650Z,102143.44
2019-02-24T01:39:29.512Z,102137.66
2019-02-24T01:42:32.455Z,102143.28
2019-02-24T01:45:35.950Z,102155.66
2019-02-24T01:48:39.173Z,102147.86
2019-02-24T01:51:42.432Z,102149.58
2019-02-24T01:54:45.945Z,102141.12
2019-02-24T01:57:49.448Z,102138.87
2019-02-24T02:00:52.981Z,102130.52
2019-02-24T02:03:56.358Z,102130.89
2019-02-24T02:06:59.627Z,102130.89
2019-02-24T02:10:02.768Z,102125.11
2019-02-24T02:13:05.988Z,102131.76
2019-02-24T02:16:08.956Z,102121.30
2019-02-24T02:19:12.209Z,102120.09
2019-02-24T02:22:15.494Z,102120.79
2019-02-24T02:25:18.691Z,102122.50
2019-02-24T02:28:22.813Z,102114.17
2019-02-24T02:31:25.765Z,102122.16
2019-02-24T02:34:29.303Z,102126.16
2019-02-24T02:37:32.799Z,102121.59
2019-02-24T02:40:36.017Z,102128.30
2019-02-24T02:43:39.844Z,102117.47
2019-02-24T02:46:43.417Z,102119.45
2019-02-24T02:49:46.357Z,102109.57
2019-02-24T02:52:49.882Z,102107.31
2019-02-24T02:55:52.823Z,102113.45
2019-02-24T02:58:55.782Z,102107.08
2019-02-24T03:01:59.130Z,102107.45
2019-02-24T03:05:02.280Z,102105.25
2019-02-24T03:08:10.556Z,102107.31
2019-02-24T03:11:14.314Z,102111.66
2019-02-24T03:14:17.877Z,102111.90
2019-02-24T03:17:21.092Z,102116.23
2019-02-24T03:20:24.062Z,102115.58
2019-02-24T03:23:27.270Z,102115.83
2019-02-24T03:26:30.878Z,102119.09
2019-02-24T03:29:34.096Z,102109.92
2019-02-24T03:32:37.313Z,102111.59
2019-02-24T03:35:41.963Z,102115.81
2019-02-24T03:38:45.515Z,102121.06
2019-02-24T03:41:49.018Z,102122.37
2019-02-24T03:44:52.294Z,102122.55
2019-02-24T03:47:55.756Z,102129.22
2019-02-24T03:50:59.313Z,102136.52
2019-02-24T03:54:02.588Z,102140.28
2019-02-24T03:57:05.872Z,102137.70
2019-02-24T04:00:09.561Z,102137.34
2019-02-24T04:03:14.189Z,102134.31
2019-02-24T04:06:17.518Z,102142.34
2019-02-24T04:09:20.555Z,102138.96
2019-02-24T04:12:24.061Z,102141.27
2019-02-24T04:15:27.008Z,102135.69
2019-02-24T04:18:30.548Z,102129.45
2019-02-24T04:21:34.228Z,102138.07
2019-02-24T04:24:37.485Z,102142.83
2019-02-24T04:27:40.460Z,102147.36
2019-02-24T04:30:44.020Z,102151.34
2019-02-24T04:33:47.519Z,102148.28
2019-02-24T04:36:50.759Z,102152.00
2019-02-24T04:39:53.978Z,102154.53
2019-02-24T04:42:58.646Z,102161.41
2019-02-24T04:46:01.612Z,102154.35
2019-02-24T04:49:04.547Z,102158.72
2019-02-24T04:52:07.815Z,102164.09
2019-02-24T04:55:10.759Z,102161.86
2019-02-24T04:58:14.396Z,102163.95
2019-02-24T05:01:17.721Z,102155.30
2019-02-24T05:04:20.980Z,102150.37
2019-02-24T05:07:24.878Z,102156.52
2019-02-24T05:10:28.134Z,102160.87
2019-02-24T05:13:31.983Z,102165.97
2019-02-24T05:16:35.207Z,102158.66
2019-02-24T05:19:38.538Z,102140.98
2019-02-24T05:22:41.823Z,102147.72
2019-02-24T05:25:44.775Z,102148.06
2019-02-24T05:28:48.915Z,102142.78
2019-02-24T05:31:52.402Z,102144.96
2019-02-24T05:34:55.671Z,102145.82
2019-02-24T05:37:58.648Z,102147.58
2019-02-24T05:41:01.903Z,102154.50
2019-02-24T05:44:05.223Z,102158.50
2019-02-24T05:47:08.704Z,102160.70
2019-02-24T05:50:11.669Z,102159.62
2019-02-24T05:53:15.220Z,102155.97
2019-02-24T05:56:18.579Z,102159.59
2019-02-24T05:59:21.888Z,102159.44
2019-02-24T06:02:25.153Z,102154.81
2019-02-24T06:05:29.099Z,102155.83
2019-02-24T06:08:32.082Z,102154.26
2019-02-24T06:11:35.895Z,102156.66
2019-02-24T06:14:39.858Z,102158.21
2019-02-24T06:17:44.751Z,102147.53
2019-02-24T06:20:48.371Z,102146.89
2019-02-24T06:23:51.608Z,102144.30
2019-02-24T06:26:55.133Z,102145.20
2019-02-24T06:30:05.097Z,102142.75
2019-02-24T06:33:04.360Z,102139.44
2019-02-24T06:36:07.317Z,102143.47
2019-02-24T06:39:10.813Z,102150.48
2019-02-24T06:42:14.631Z,102146.56
2019-02-24T06:45:17.964Z,102153.17
2019-02-24T06:48:21.183Z,102144.06
2019-02-24T06:51:24.457Z,102152.50
2019-02-24T06:54:28.080Z,102161.94
2019-02-24T06:57:31.681Z,102151.46
2019-02-24T07:00:35.167Z,102154.12
2019-02-24T07:03:38.236Z,102152.80
2019-02-24T07:06:41.772Z,102155.97
2019-02-24T07:09:44.760Z,102149.55
2019-02-24T07:12:47.724Z,102155.48
2019-02-24T07:15:50.949Z,102159.34
2019-02-24T07:18:54.206Z,102160.78
2019-02-24T07:21:57.694Z,102169.71
2019-02-24T07:25:00.939Z,102179.35
2019-02-24T07:28:03.892Z,102176.83
2019-02-24T07:31:07.130Z,102164.32
2019-02-24T07:34:10.129Z,102155.61
2019-02-24T07:37:14.395Z,102146.63
2019-02-24T07:40:17.662Z,102141.38
2019-02-24T07:43:20.894Z,102133.83
2019-02-24T07:46:24.208Z,102136.58
2019-02-24T07:49:28.443Z,102135.11
2019-02-24T07:52:31.400Z,102139.52
2019-02-24T07:55:34.352Z,102147.65
2019-02-24T07:58:37.292Z,102157.36
2019-02-24T08:01:42.473Z,102162.94
2019-02-24T08:04:46.038Z,102161.09
2019-02-24T08:07:49.257Z,102172.42
2019-02-24T08:10:52.545Z,102166.77
2019-02-24T08:13:55.504Z,102172.66
2019-02-24T08:16:59.127Z,102182.91
2019-02-24T08:21:01.238Z,102188.56
2019-02-24T08:24:04.843Z,102194.41
2019-02-24T08:27:07.814Z,102200.41
2019-02-24T08:30:10.872Z,102202.26
2019-02-24T08:33:13.916Z,102213.09
2019-02-24T08:36:17.768Z,102214.96
2019-02-24T08:39:20.703Z,102216.70
2019-02-24T08:42:25.080Z,102217.19
2019-02-24T08:45:28.024Z,102225.85
2019-02-24T08:48:31.183Z,102222.95
2019-02-24T08:51:35.164Z,102229.42
2019-02-24T08:54:38.113Z,102238.41
2019-02-24T08:57:41.382Z,102242.69
2019-02-24T09:00:50.699Z,102252.80
2019-02-24T09:03:50.067Z,102255.77
2019-02-24T09:06:53.022Z,102256.63
2019-02-24T09:09:56.544Z,102254.59
2019-02-24T09:13:00.063Z,102255.10
2019-02-24T09:16:03.327Z,102253.37
2019-02-24T09:19:06.365Z,102259.80
2019-02-24T09:22:09.349Z,102262.80
2019-02-24T09:25:13.108Z,102262.43
2019-02-24T09:28:16.157Z,102262.47
2019-02-24T09:31:19.209Z,102259.45
2019-02-24T09:34:22.443Z,102260.52
2019-02-24T09:37:26.728Z,102256.27
2019-02-24T09:40:29.667Z,102250.63
2019-02-24T09:43:33.183Z,102251.40
2019-02-24T09:46:36.501Z,102243.78
2019-02-24T09:49:39.452Z,102252.89
2019-02-24T09:52:42.674Z,102250.53
2019-02-24T09:55:46.550Z,102252.22
2019-02-24T09:58:49.521Z,102253.84
2019-02-24T10:01:52.825Z,102252.39
2019-02-24T10:04:56.122Z,102257.44
2019-02-24T10:07:59.637Z,102257.53
2019-02-24T10:11:03.202Z,102264.55
2019-02-24T10:14:06.734Z,102265.13
2019-02-24T10:17:09.712Z,102272.80
2019-02-24T10:20:12.812Z,102273.13
2019-02-24T10:23:16.068Z,102275.14
2019-02-24T10:26:19.018Z,102281.58
2019-02-24T10:29:22.267Z,102275.12
2019-02-24T10:32:26.127Z,102275.30
2019-02-24T10:35:29.645Z,102282.11
2019-02-24T10:38:32.695Z,102285.81
2019-02-24T10:41:35.636Z,102269.32
2019-02-24T10:44:38.883Z,102260.31
2019-02-24T10:47:42.159Z,102262.52
2019-02-24T10:50:45.678Z,102260.27
2019-02-24T10:53:48.948Z,102251.98
2019-02-24T10:56:52.444Z,102245.52
2019-02-24T10:59:56.251Z,102247.98
2019-02-24T11:02:59.728Z,102250.33
2019-02-24T11:06:02.691Z,102242.81
2019-02-24T11:09:06.416Z,102245.02
2019-02-24T11:12:09.826Z,102241.72
2019-02-24T11:15:13.296Z,102238.94
2019-02-24T11:18:16.625Z,102237.80
2019-02-24T11:21:19.841Z,102232.78
2019-02-24T11:24:22.902Z,102230.86
2019-02-24T11:27:25.860Z,102226.45
2019-02-24T11:30:29.235Z,102231.39
2019-02-24T11:33:32.272Z,102229.41
2019-02-24T11:36:35.791Z,102214.55
2019-02-24T11:39:38.758Z,102222.95
2019-02-24T11:42:41.962Z,102230.48
2019-02-24T11:45:44.941Z,102232.21
2019-02-24T11:48:48.163Z,102241.88
2019-02-24T11:51:51.154Z,102243.56
2019-02-24T11:54:54.985Z,102244.59
2019-02-24T11:57:58.288Z,102237.98
2019-02-24T12:01:01.840Z,102231.41
2019-02-24T12:04:05.318Z,102225.18
2019-02-24T12:07:08.900Z,102229.19
2019-02-24T12:10:12.247Z,102228.27
2019-02-24T12:13:15.308Z,102222.08
2019-02-24T12:16:19.140Z,102215.01
2019-02-24T12:19:22.792Z,102213.22
2019-02-24T12:22:25.855Z,102220.31
2019-02-24T12:25:29.111Z,102218.55
2019-02-24T12:28:32.388Z,102218.52
2019-02-24T12:31:36.342Z,102216.28
2019-02-24T12:34:39.576Z,102219.88
2019-02-24T12:37:42.843Z,102221.12
2019-02-24T12:40:46.087Z,102220.30
2019-02-24T12:43:49.403Z,102212.19
2019-02-24T12:46:52.372Z,102215.15
2019-02-24T12:50:02.915Z,102213.05
2019-02-24T12:53:01.302Z,102209.08
2019-02-24T12:56:04.602Z,102209.55
2019-02-24T12:59:08.177Z,102202.39
2019-02-24T13:02:11.239Z,102201.19
2019-02-24T13:05:14.455Z,102187.57
2019-02-24T13:08:17.560Z,102173.05
2019-02-24T13:11:21.530Z,102173.95
2019-02-24T13:14:24.795Z,102173.64
2019-02-24T13:17:28.037Z,102180.58
2019-02-24T13:20:31.081Z,102177.97
2019-02-24T13:23:35.305Z,102174.28
2019-02-24T13:26:38.544Z,102172.97
2019-02-24T13:29:41.515Z,102173.53
2019-02-24T13:32:44.755Z,102165.93
2019-02-24T13:35:47.815Z,102160.77
2019-02-24T13:38:51.083Z,102167.58
2019-02-24T13:41:54.318Z,102170.09
2019-02-24T13:44:57.282Z,102165.84
2019-02-24T13:48:01.515Z,102163.44
2019-02-24T13:51:04.860Z,102150.09
2019-02-24T13:54:07.819Z,102158.17
2019-02-24T13:57:11.121Z,102152.64
2019-02-24T14:00:15.202Z,102154.98
2019-02-24T14:03:18.527Z,102153.21
2019-02-24T14:06:21.735Z,102147.43
2019-02-24T14:09:24.983Z,102150.14
2019-02-24T14:12:27.916Z,102156.67
2019-02-24T14:15:31.186Z,102147.11
2019-02-24T14:18:34.726Z,102148.40
2019-02-24T14:21:38.529Z,102139.31
2019-02-24T14:24:41.521Z,102123.89
2019-02-24T14:27:44.488Z,102131.98
2019-02-24T14:30:47.741Z,102132.52
2019-02-24T14:33:50.731Z,102139.16
2019-02-24T14:36:53.946Z,102142.29
2019-02-24T14:39:57.281Z,102145.84
2019-02-24T14:43:00.256Z,102143.59
2019-02-24T14:46:03.763Z,102142.27
2019-02-24T14:49:06.831Z,102143.56
2019-02-24T14:52:10.520Z,102146.66
2019-02-24T14:55:13.880Z,102153.32
2019-02-24T14:58:17.203Z,102152.48
2019-02-24T15:01:20.234Z,102158.16
2019-02-24T15:04:23.344Z,102157.30
2019-02-24T15:07:26.416Z,102161.28
2019-02-24T15:10:29.971Z,102162.63
2019-02-24T15:13:33.234Z,102164.70
2019-02-24T15:16:36.218Z,102170.89
2019-02-24T15:19:39.779Z,102165.11
2019-02-24T15:22:43.934Z,102168.13
2019-02-24T15:25:47.247Z,102168.63
2019-02-24T15:28:50.531Z,102169.88
2019-02-24T15:31:53.757Z,102171.12
2019-02-24T15:34:57.436Z,102167.25
2019-02-24T15:38:00.753Z,102169.06
2019-02-24T15:41:03.723Z,102175.70
2019-02-24T15:44:06.675Z,102179.58
2019-02-24T15:47:09.660Z,102175.55
2019-02-24T15:50:12.832Z,102177.70
2019-02-24T15:53:16.406Z,102170.98
2019-02-24T15:56:19.403Z,102169.98
2019-02-24T15:59:23.824Z,102169.55
2019-02-24T16:02:26.767Z,102170.82
2019-02-24T16:05:30.023Z,102175.98
2019-02-24T16:08:33.240Z,102174.16
2019-02-24T16:11:37.081Z,102172.77
2019-02-24T16:14:40.314Z,102179.28
2019-02-24T16:17:43.879Z,102175.09
2019-02-24T16:20:47.189Z,102177.67
2019-02-24T16:23:50.153Z,102180.16
2019-02-24T16:26:53.401Z,102181.36
2019-02-24T16:29:56.929Z,102179.09
2019-02-24T16:32:59.877Z,102175.45
2019-02-24T16:36:03.458Z,102173.60
2019-02-24T16:39:06.444Z,102171.22
2019-02-24T16:42:11.014Z,102174.13
2019-02-24T16:45:14.242Z,102172.69
2019-02-24T16:48:18.236Z,102181.41
2019-02-24T16:51:21.470Z,102182.64
2019-02-24T16:54:24.412Z,102178.14
2019-02-24T16:57:27.364Z,102181.43
2019-02-24T17:00:31.263Z,102182.36
2019-02-24T17:03:34.829Z,102184.70
2019-02-24T17:06:38.219Z,102189.49
2019-02-24T17:09:41.986Z,102189.95
2019-02-24T17:12:45.273Z,102200.81
2019-02-24T17:15:48.258Z,102202.06
2019-02-24T17:18:51.796Z,102206.78
2019-02-24T17:21:54.812Z,102208.09
2019-02-24T17:24:58.056Z,102206.05
2019-02-24T17:28:01.307Z,102201.59
2019-02-24T17:31:04.381Z,102208.62
2019-02-24T17:34:07.352Z,102215.11
2019-02-24T17:37:19.682Z,102216.31
2019-02-24T17:40:16.620Z,102217.47
2019-02-24T17:43:19.640Z,102228.20
2019-02-24T17:46:23.180Z,102219.82
2019-02-24T17:49:26.429Z,102225.70
2019-02-24T17:52:29.836Z,102225.73
2019-02-24T17:55:33.438Z,102226.34
2019-02-24T17:58:36.395Z,102233.45
2019-02-24T18:01:39.927Z,102235.78
2019-02-24T18:04:43.198Z,102234.59
2019-02-24T18:07:46.171Z,102233.83
2019-02-24T18:10:49.146Z,102232.66
2019-02-24T18:13:52.521Z,102233.55
2019-02-24T18:16:55.955Z,102234.88
2019-02-24T18:19:59.235Z,102224.27
2019-02-24T18:23:02.228Z,102226.06
2019-02-24T18:26:06.499Z,102227.59
2019-02-24T18:29:09.871Z,102229.92
2019-02-24T18:32:13.160Z,102222.84
2019-02-24T18:35:16.496Z,102225.47
2019-02-24T18:38:19.705Z,102220.72
2019-02-24T18:41:23.205Z,102223.06
2019-02-24T18:44:26.165Z,102222.78
2019-02-24T18:47:30.026Z,102218.65
2019-02-24T18:50:32.967Z,102216.38
2019-02-24T18:53:36.212Z,102211.77
2019-02-24T18:56:39.485Z,102204.47
2019-02-24T18:59:43.000Z,102207.87
2019-02-24T19:02:46.530Z,102206.59
2019-02-24T19:05:50.124Z,102205.27
2019-02-24T19:08:53.371Z,102198.02
2019-02-24T19:11:56.310Z,102201.03
2019-02-24T19:14:59.561Z,102203.77
2019-02-24T19:18:02.575Z,102205.56
2019-02-24T19:21:05.538Z,102178.43
2019-02-24T19:24:08.870Z,102198.26
2019-02-24T19:27:13.071Z,102198.68
2019-02-24T19:30:16.100Z,102198.12
2019-02-24T19:33:19.847Z,102195.44
2019-02-24T19:36:22.813Z,102192.70
2019-02-24T19:39:25.878Z,102188.13
2019-02-24T19:42:29.102Z,102196.37
2019-02-24T19:45:32.069Z,102195.67
2019-02-24T19:48:41.767Z,102199.38
2019-02-24T19:51:40.135Z,102200.00
2019-02-24T19:54:43.360Z,102204.02
2019-02-24T19:57:46.627Z,102201.55
2019-02-24T20:00:49.593Z,102202.11
2019-02-24T20:03:52.829Z,102200.19
2019-02-24T20:06:55.795Z,102196.75
2019-02-24T20:09:59.280Z,102199.34
2019-02-24T20:13:02.527Z,102204.70
2019-02-24T20:16:06.095Z,102215.02
2019-02-24T20:19:09.385Z,102218.73
2019-02-24T20:22:12.981Z,102223.55
2019-02-24T20:25:16.075Z,102226.00
2019-02-24T20:28:19.013Z,102222.87
2019-02-24T20:31:21.972Z,102223.74
2019-02-24T20:34:25.967Z,102218.64
2019-02-24T20:37:29.369Z,102214.31
2019-02-24T20:40:33.435Z,102214.66
2019-02-24T20:43:36.663Z,102213.86
2019-02-24T20:46:39.921Z,102220.23
2019-02-24T20:49:43.691Z,102226.70
2019-02-24T20:52:46.977Z,102222.38
2019-02-24T20:55:49.939Z,102218.38
2019-02-24T20:58:53.164Z,102222.70
2019-02-24T21:01:56.710Z,102204.79
2019-02-24T21:05:00.567Z,102224.48
2019-02-24T21:08:03.876Z,102225.34
2019-02-24T21:11:07.261Z,102216.48
2019-02-24T21:14:10.481Z,102211.14
2019-02-24T21:17:13.780Z,102218.02
2019-02-24T21:20:19.526Z,102228.50
2019-02-24T21:23:22.842Z,102229.23
2019-02-24T21:26:25.824Z,102228.82
2019-02-24T21:29:29.406Z,102226.77
2019-02-24T21:32:32.976Z,102231.98
2019-02-24T21:35:36.191Z,102231.64
2019-02-24T21:38:39.984Z,102236.30
2019-02-24T21:41:43.011Z,102233.45
2019-02-24T21:44:46.079Z,102232.97
2019-02-24T21:47:49.293Z,102225.19
2019-02-24T21:50:52.529Z,102234.09
2019-02-24T21:53:55.670Z,102231.38
2019-02-24T21:57:00.292Z,102230.08
2019-02-24T22:00:06.113Z,102233.75
2019-02-24T22:03:09.869Z,102239.91
2019-02-24T22:06:13.917Z,102232.79
2019-02-24T22:09:17.605Z,102231.23
2019-02-24T22:12:20.731Z,102239.48
2019-02-24T22:15:23.860Z,102231.21
2019-02-24T22:18:26.876Z,102230.89
2019-02-24T22:21:29.847Z,102232.70
2019-02-24T22:24:33.361Z,102228.00
2019-02-24T22:27:36.414Z,102242.89
2019-02-24T22:30:39.656Z,102248.89
2019-02-24T22:33:43.234Z,102242.09
2019-02-24T22:36:46.183Z,102249.89
2019-02-24T22:39:49.153Z,102247.82
2019-02-24T22:42:52.105Z,102248.18
2019-02-24T22:45:55.066Z,102244.38
2019-02-24T22:48:58.040Z,102241.80
2019-02-24T22:52:01.320Z,102239.24
2019-02-24T22:55:05.017Z,102242.64
2019-02-24T22:58:08.229Z,102247.06
2019-02-24T23:01:19.732Z,102249.67
2019-02-24T23:04:24.109Z,102262.81
2019-02-24T23:07:27.343Z,102263.42
2019-02-24T23:10:30.296Z,102263.58
2019-02-24T23:13:33.233Z,102265.17
2019-02-24T23:16:36.582Z,102270.43
2019-02-24T23:19:39.865Z,102275.55
2019-02-24T23:22:43.115Z,102273.77
2019-02-24T23:25:46.089Z,102280.21
2019-02-24T23:28:50.773Z,102272.89
2019-02-24T23:31:54.070Z,102272.53
2019-02-24T23:34:57.583Z,102275.64
2019-02-24T23:38:01.183Z,102280.95
2019-02-24T23:41:04.824Z,102281.27
2019-02-24T23:44:07.866Z,102289.41
2019-02-24T23:47:10.929Z,102293.80
2019-02-24T23:50:14.250Z,102287.80
2019-02-24T23:53:18.082Z,102291.11
2019-02-24T23:56:21.048Z,102283.03
2019-02-24T23:59:24.270Z,102285.23
